createdAt,value
2023-01-19T00:01:46.846Z,18.10
2023-01-19T00:04:16.233Z,15.10
2023-01-19T00:06:45.693Z,15.07
2023-01-19T00:09:15.330Z,21.60
2023-01-19T00:11:44.699Z,14.60
2023-01-19T00:14:14.120Z,17.20
2023-01-19T00:16:43.481Z,14.70
2023-01-19T00:19:12.781Z,18.27
2023-01-19T00:21:42.051Z,14.85
2023-01-19T00:24:11.703Z,14.25
2023-01-19T00:26:42.971Z,15.00
2023-01-19T00:29:15.944Z,16.20
2023-01-19T00:31:45.250Z,15.93
2023-01-19T00:34:14.555Z,12.95
2023-01-19T00:36:44.311Z,18.52
2023-01-19T00:39:13.838Z,16.92
2023-01-19T00:41:55.691Z,13.88
2023-01-19T00:44:27.725Z,15.10
2023-01-19T00:46:57.056Z,17.23
2023-01-19T00:49:26.461Z,16.25
2023-01-19T00:51:56.023Z,17.13
2023-01-19T00:54:27.582Z,15.88
2023-01-19T00:56:56.965Z,16.13
2023-01-19T00:59:26.424Z,17.85
2023-01-19T01:01:56.006Z,16.38
2023-01-19T01:04:25.407Z,13.32
2023-01-19T01:06:54.964Z,17.83
2023-01-19T01:09:24.588Z,22.33
2023-01-19T01:11:54.248Z,15.15
2023-01-19T01:14:23.900Z,16.15
2023-01-19T01:16:53.634Z,16.75
2023-01-19T01:19:23.033Z,22.25
2023-01-19T01:21:54.210Z,16.52
2023-01-19T01:24:23.843Z,19.48
2023-01-19T01:26:53.391Z,17.00
2023-01-19T01:29:23.104Z,17.77
2023-01-19T01:31:53.539Z,20.25
2023-01-19T01:34:22.888Z,21.48
2023-01-19T01:36:52.628Z,19.83
2023-01-19T01:39:22.102Z,15.45
2023-01-19T01:41:51.492Z,20.38
2023-01-19T01:44:49.658Z,13.73
2023-01-19T01:47:39.586Z,15.90
2023-01-19T01:50:15.427Z,19.05
2023-01-19T01:53:08.494Z,18.75
2023-01-19T01:55:44.918Z,20.25
2023-01-19T01:58:15.149Z,16.45
2023-01-19T02:01:05.940Z,16.50
2023-01-19T02:03:35.441Z,20.30
2023-01-19T02:06:07.242Z,18.08
2023-01-19T02:09:00.588Z,20.80
2023-01-19T02:11:43.416Z,14.57
2023-01-19T02:14:12.939Z,20.60
2023-01-19T02:16:42.934Z,14.70
2023-01-19T02:19:15.343Z,18.40
2023-01-19T02:24:15.825Z,16.20
2023-01-19T02:26:47.046Z,16.27
2023-01-19T02:29:18.261Z,15.68
2023-01-19T02:31:48.218Z,20.33
2023-01-19T02:34:19.747Z,14.45
2023-01-19T02:36:55.713Z,13.00
2023-01-19T02:39:28.770Z,14.55
2023-01-19T02:42:02.910Z,17.67
2023-01-19T02:44:33.406Z,19.30
2023-01-19T02:47:02.808Z,17.90
2023-01-19T02:49:32.930Z,16.23
2023-01-19T02:52:04.371Z,14.70
2023-01-19T02:54:54.214Z,14.73
2023-01-19T02:57:39.407Z,12.52
2023-01-19T03:00:38.114Z,15.02
2023-01-19T03:03:27.143Z,17.58
2023-01-19T03:06:16.525Z,13.63
2023-01-19T03:08:50.236Z,15.07
2023-01-19T03:11:19.737Z,14.70
2023-01-19T03:13:52.279Z,14.40
2023-01-19T03:18:57.664Z,15.00
2023-01-19T03:21:29.407Z,15.57
2023-01-19T03:24:02.084Z,17.38
2023-01-19T03:26:33.056Z,13.85
2023-01-19T03:29:03.974Z,18.63
2023-01-19T03:31:34.767Z,14.38
2023-01-19T03:34:06.883Z,16.50
2023-01-19T03:36:41.882Z,15.70
2023-01-19T03:39:12.419Z,17.73
2023-01-19T03:41:42.953Z,13.88
2023-01-19T03:44:13.712Z,16.02
2023-01-19T03:46:43.664Z,15.85
2023-01-19T03:49:13.912Z,14.18
2023-01-19T03:51:43.411Z,14.90
2023-01-19T03:54:13.543Z,13.75
2023-01-19T03:56:44.036Z,10.55
2023-01-19T03:59:17.564Z,10.93
2023-01-19T04:01:47.104Z,11.38
2023-01-19T04:04:16.645Z,11.43
2023-01-19T04:06:46.326Z,12.55
2023-01-19T04:09:15.628Z,10.63
2023-01-19T04:11:44.933Z,9.77
2023-01-19T04:14:14.224Z,9.90
2023-01-19T04:16:43.479Z,11.30
2023-01-19T04:19:12.727Z,12.57
2023-01-19T04:21:42.059Z,11.60
2023-01-19T04:24:12.430Z,9.65
2023-01-19T04:26:41.870Z,9.23
2023-01-19T04:29:11.398Z,11.90
2023-01-19T04:31:40.656Z,10.60
2023-01-19T04:34:10.244Z,10.23
2023-01-19T04:36:39.537Z,9.65
2023-01-19T04:39:09.228Z,8.95
2023-01-19T04:41:38.524Z,11.93
2023-01-19T04:44:07.917Z,11.45
2023-01-19T04:46:37.248Z,11.40
2023-01-19T04:49:06.614Z,9.75
2023-01-19T04:51:35.945Z,8.90
2023-01-19T04:54:05.487Z,11.38
2023-01-19T04:56:34.784Z,10.38
2023-01-19T04:59:04.188Z,9.23
2023-01-19T05:01:33.535Z,10.50
2023-01-19T05:04:05.215Z,9.55
2023-01-19T05:06:34.523Z,6.43
2023-01-19T05:09:03.783Z,7.75
2023-01-19T05:11:33.128Z,7.15
2023-01-19T05:14:02.429Z,6.25
2023-01-19T05:16:31.704Z,5.13
2023-01-19T05:19:00.980Z,5.15
2023-01-19T05:21:30.978Z,5.80
2023-01-19T05:24:00.294Z,6.10
2023-01-19T05:26:29.560Z,4.55
2023-01-19T05:28:58.813Z,4.88
2023-01-19T05:31:28.795Z,6.88
2023-01-19T05:33:58.114Z,6.13
2023-01-19T05:36:27.631Z,5.53
2023-01-19T05:38:56.958Z,6.15
2023-01-19T05:41:26.314Z,7.30
2023-01-19T05:43:55.639Z,4.85
2023-01-19T05:46:25.011Z,7.57
2023-01-19T05:48:54.339Z,3.50
2023-01-19T05:51:23.593Z,6.80
2023-01-19T05:53:52.884Z,3.70
2023-01-19T05:56:22.237Z,5.22
2023-01-19T05:58:51.500Z,5.25
2023-01-19T06:01:21.041Z,4.30
2023-01-19T06:03:52.611Z,6.05
2023-01-19T06:06:21.904Z,6.72
2023-01-19T06:11:31.528Z,3.92
2023-01-19T06:14:01.034Z,8.18
2023-01-19T06:16:30.485Z,5.05
2023-01-19T06:18:59.772Z,4.40
2023-01-19T06:21:29.098Z,4.43
2023-01-19T06:23:58.768Z,5.60
2023-01-19T06:26:28.558Z,5.65
2023-01-19T06:28:58.332Z,5.18
2023-01-19T06:31:27.711Z,5.10
2023-01-19T06:33:56.987Z,3.92
2023-01-19T06:36:26.340Z,6.28
2023-01-19T06:38:55.641Z,7.63
2023-01-19T06:41:24.953Z,7.47
2023-01-19T06:43:54.316Z,5.95
2023-01-19T06:46:26.376Z,6.82
2023-01-19T06:48:55.965Z,10.60
2023-01-19T06:51:28.128Z,9.00
2023-01-19T06:53:57.793Z,11.75
2023-01-19T06:56:27.122Z,8.95
2023-01-19T06:58:56.405Z,11.35
2023-01-19T07:01:27.073Z,12.88
2023-01-19T07:03:56.586Z,9.20
2023-01-19T07:06:25.914Z,9.82
2023-01-19T07:08:57.977Z,10.23
2023-01-19T07:11:32.784Z,11.80
2023-01-19T07:14:03.497Z,10.32
2023-01-19T07:16:32.838Z,13.25
2023-01-19T07:19:02.104Z,16.58
2023-01-19T07:21:31.376Z,10.75
2023-01-19T07:24:00.614Z,10.73
2023-01-19T07:26:30.933Z,10.40
2023-01-19T07:29:00.243Z,13.75
2023-01-19T07:31:29.624Z,13.18
2023-01-19T07:33:59.079Z,12.32
2023-01-19T07:36:28.409Z,12.05
2023-01-19T07:38:57.722Z,13.70
2023-01-19T07:41:26.986Z,15.02
2023-01-19T07:43:56.225Z,14.52
2023-01-19T07:46:28.632Z,15.35
2023-01-19T07:51:28.048Z,17.92
2023-01-19T07:53:57.313Z,16.75
2023-01-19T07:56:27.895Z,17.52
2023-01-19T07:58:57.773Z,19.10
2023-01-19T08:01:27.101Z,15.15
2023-01-19T08:03:56.397Z,16.40
2023-01-19T08:06:26.484Z,19.77
2023-01-19T08:08:55.793Z,19.48
2023-01-19T08:11:27.720Z,20.08
2023-01-19T08:13:56.948Z,18.55
2023-01-19T08:16:26.274Z,18.98
2023-01-19T08:18:55.548Z,17.48
2023-01-19T08:21:25.113Z,19.30
2023-01-19T08:23:55.708Z,18.33
2023-01-19T08:26:32.399Z,17.60
2023-01-19T08:29:03.617Z,18.67
2023-01-19T08:31:33.323Z,21.85
2023-01-19T08:34:03.415Z,19.33
2023-01-19T08:36:32.812Z,19.40
2023-01-19T08:39:02.175Z,18.30
2023-01-19T08:41:32.551Z,17.67
2023-01-19T08:44:02.226Z,20.45
2023-01-19T08:46:32.206Z,21.88
2023-01-19T08:49:01.798Z,22.33
2023-01-19T08:51:31.064Z,19.52
2023-01-19T08:54:00.317Z,19.25
2023-01-19T08:56:30.081Z,25.90
2023-01-19T08:59:08.685Z,20.40
2023-01-19T09:01:39.998Z,18.83
2023-01-19T09:04:09.644Z,25.20
2023-01-19T09:06:38.965Z,22.15
2023-01-19T09:09:08.300Z,19.95
2023-01-19T09:11:37.756Z,24.88
2023-01-19T09:14:07.189Z,21.13
2023-01-19T09:16:36.533Z,25.60
2023-01-19T09:19:08.671Z,18.63
2023-01-19T09:21:38.603Z,24.67
2023-01-19T09:24:08.984Z,31.70
2023-01-19T09:26:40.703Z,26.23
2023-01-19T09:29:09.998Z,24.30
2023-01-19T09:31:40.271Z,24.13
2023-01-19T09:34:10.980Z,21.42
2023-01-19T09:36:40.403Z,16.38
2023-01-19T09:39:11.090Z,24.25
2023-01-19T09:41:41.421Z,22.48
2023-01-19T09:44:17.968Z,26.65
2023-01-19T09:46:47.315Z,22.38
2023-01-19T09:49:18.585Z,20.70
2023-01-19T09:51:49.101Z,18.70
2023-01-19T09:54:19.598Z,20.63
2023-01-19T09:56:52.766Z,19.25
2023-01-19T09:59:22.256Z,21.23
2023-01-19T10:02:06.874Z,22.92
2023-01-19T10:04:36.377Z,30.67
2023-01-19T10:07:25.890Z,26.88
2023-01-19T10:10:13.150Z,27.88
2023-01-19T10:12:45.784Z,31.10
2023-01-19T10:15:33.917Z,24.58
2023-01-19T10:18:18.325Z,28.38
2023-01-19T10:20:56.113Z,29.48
2023-01-19T10:23:34.388Z,28.23
2023-01-19T10:26:05.965Z,28.33
2023-01-19T10:28:35.547Z,26.27
2023-01-19T10:31:06.401Z,28.00
2023-01-19T10:33:36.318Z,29.42
2023-01-19T10:36:09.183Z,24.00
2023-01-19T10:38:38.737Z,30.92
2023-01-19T10:41:10.461Z,25.23
2023-01-19T10:43:41.631Z,30.23
2023-01-19T10:46:20.044Z,27.35
2023-01-19T10:48:51.143Z,32.58
2023-01-19T10:51:24.383Z,30.10
2023-01-19T10:54:01.693Z,27.13
2023-01-19T10:56:34.197Z,28.77
2023-01-19T11:01:37.302Z,32.50
2023-01-19T11:04:31.792Z,31.00
2023-01-19T11:07:17.249Z,27.00
2023-01-19T11:09:46.556Z,31.85
2023-01-19T11:12:23.642Z,24.95
2023-01-19T11:14:54.330Z,24.83
2023-01-19T11:17:25.942Z,28.10
2023-01-19T11:19:59.743Z,35.83
2023-01-19T11:22:30.646Z,28.05
2023-01-19T11:25:00.938Z,26.65
2023-01-19T11:27:30.671Z,25.48
2023-01-19T11:30:05.321Z,26.55
2023-01-19T11:32:37.119Z,26.90
2023-01-19T11:35:28.447Z,23.05
2023-01-19T11:38:16.106Z,26.30
2023-01-19T11:40:49.898Z,32.67
2023-01-19T11:43:19.162Z,28.88
2023-01-19T11:45:48.903Z,23.40
2023-01-19T11:48:25.391Z,26.35
2023-01-19T11:50:54.968Z,23.88
2023-01-19T11:53:34.037Z,18.73
2023-01-19T11:56:17.370Z,21.30
2023-01-19T11:58:47.550Z,29.52
2023-01-19T12:01:25.298Z,19.77
2023-01-19T12:04:00.637Z,20.95
2023-01-19T12:06:41.598Z,21.88
2023-01-19T12:09:14.101Z,25.45
2023-01-19T12:14:22.120Z,17.20
2023-01-19T12:16:53.410Z,29.45
2023-01-19T12:19:26.162Z,15.43
2023-01-19T12:21:55.870Z,20.10
2023-01-19T12:24:32.681Z,15.95
2023-01-19T12:27:03.576Z,23.27
2023-01-19T12:29:37.829Z,17.15
2023-01-19T12:32:16.705Z,17.38
2023-01-19T12:34:49.267Z,15.85
2023-01-19T12:37:30.594Z,21.40
2023-01-19T12:40:01.624Z,15.50
2023-01-19T12:42:31.613Z,23.42
2023-01-19T12:45:11.158Z,20.38
2023-01-19T12:47:40.513Z,22.05
2023-01-19T12:50:14.400Z,16.17
2023-01-19T12:52:49.496Z,16.55
2023-01-19T12:55:18.923Z,14.48
2023-01-19T12:57:53.946Z,14.40
2023-01-19T13:00:23.290Z,20.20
2023-01-19T13:02:54.367Z,15.93
2023-01-19T13:05:41.951Z,19.08
2023-01-19T13:08:11.490Z,20.23
2023-01-19T13:10:59.677Z,16.50
2023-01-19T13:13:30.359Z,19.27
2023-01-19T13:16:02.654Z,15.77
2023-01-19T13:18:37.676Z,18.42
2023-01-19T13:21:10.391Z,15.30
2023-01-19T13:23:52.442Z,17.42
2023-01-19T13:26:22.824Z,15.68
2023-01-19T13:28:54.848Z,17.88
2023-01-19T13:31:24.696Z,18.02
2023-01-19T13:33:55.859Z,17.45
2023-01-19T13:36:26.595Z,13.05
2023-01-19T13:38:56.344Z,16.25
2023-01-19T13:41:31.313Z,17.80
2023-01-19T13:44:05.265Z,15.77
2023-01-19T13:46:34.779Z,18.77
2023-01-19T13:49:06.946Z,17.08
2023-01-19T13:51:36.263Z,15.55
2023-01-19T13:54:06.280Z,15.52
2023-01-19T13:56:35.594Z,17.58
2023-01-19T13:59:10.354Z,11.95
2023-01-19T14:01:43.668Z,19.75
2023-01-19T14:04:27.413Z,17.83
2023-01-19T14:06:59.199Z,18.20
2023-01-19T14:09:28.475Z,17.08
2023-01-19T14:12:14.032Z,18.33
2023-01-19T14:14:47.300Z,20.70
2023-01-19T14:17:34.919Z,13.25
2023-01-19T14:20:05.451Z,18.85
2023-01-19T14:22:41.797Z,16.23
2023-01-19T14:25:29.784Z,17.35
2023-01-19T14:28:17.973Z,18.38
2023-01-19T14:31:07.236Z,18.33
2023-01-19T14:33:36.492Z,25.27
2023-01-19T14:36:13.229Z,20.90
2023-01-19T14:38:49.820Z,21.80
2023-01-19T14:41:37.955Z,18.45
2023-01-19T14:44:10.882Z,13.77
2023-01-19T14:46:40.763Z,18.33
2023-01-19T14:49:14.138Z,16.13
2023-01-19T14:51:43.448Z,19.33
2023-01-19T14:54:19.961Z,24.05
2023-01-19T14:56:49.424Z,20.88
2023-01-19T14:59:18.732Z,18.23
2023-01-19T15:01:48.137Z,21.80
2023-01-19T15:04:17.508Z,20.38
2023-01-19T15:06:47.270Z,16.95
2023-01-19T15:09:17.622Z,20.73
2023-01-19T15:11:52.079Z,21.98
2023-01-19T15:14:21.912Z,24.25
2023-01-19T15:16:51.735Z,19.85
2023-01-19T15:19:21.396Z,25.73
2023-01-19T15:21:50.847Z,19.05
2023-01-19T15:24:20.180Z,25.02
2023-01-19T15:26:49.768Z,21.77
2023-01-19T15:29:26.667Z,22.67
2023-01-19T15:31:55.932Z,24.67
2023-01-19T15:34:25.380Z,22.42
2023-01-19T15:36:54.669Z,20.27
2023-01-19T15:39:23.951Z,23.08
2023-01-19T15:41:53.219Z,24.42
2023-01-19T15:44:22.550Z,19.60
2023-01-19T15:46:54.520Z,28.88
2023-01-19T15:49:23.949Z,23.85
2023-01-19T15:51:53.227Z,26.00
2023-01-19T15:54:22.656Z,22.77
2023-01-19T15:56:52.888Z,19.80
2023-01-19T15:59:23.738Z,26.25
2023-01-19T16:01:53.133Z,21.15
2023-01-19T16:04:22.660Z,28.73
2023-01-19T16:06:52.356Z,24.38
2023-01-19T16:09:21.765Z,28.10
2023-01-19T16:11:51.076Z,23.65
2023-01-19T16:14:20.457Z,24.35
2023-01-19T16:16:49.742Z,22.95
2023-01-19T16:19:19.262Z,24.20
2023-01-19T16:21:48.515Z,22.85
2023-01-19T16:24:18.211Z,22.27
2023-01-19T16:26:47.582Z,23.98
2023-01-19T16:29:16.877Z,19.55
2023-01-19T16:31:46.568Z,21.10
2023-01-19T16:34:15.897Z,24.00
2023-01-19T16:36:45.938Z,23.35
2023-01-19T16:39:16.134Z,20.33
2023-01-19T16:41:46.287Z,23.20
2023-01-19T16:44:16.403Z,21.48
2023-01-19T16:46:47.097Z,18.52
2023-01-19T16:49:17.773Z,22.30
2023-01-19T16:51:47.208Z,17.60
2023-01-19T16:54:17.267Z,21.92
2023-01-19T16:56:46.674Z,19.50
2023-01-19T16:59:16.746Z,21.05
2023-01-19T17:01:46.554Z,26.30
2023-01-19T17:04:16.062Z,23.92
2023-01-19T17:06:46.563Z,21.23
2023-01-19T17:09:16.227Z,25.05
2023-01-19T17:11:45.655Z,19.80
2023-01-19T17:14:16.657Z,21.00
2023-01-19T17:16:46.196Z,19.10
2023-01-19T17:19:17.495Z,24.50
2023-01-19T17:21:48.713Z,20.35
2023-01-19T17:24:18.247Z,22.02
2023-01-19T17:26:48.826Z,25.58
2023-01-19T17:29:18.877Z,30.92
2023-01-19T17:31:48.566Z,22.95
2023-01-19T17:34:17.944Z,27.30
2023-01-19T17:36:47.371Z,30.08
2023-01-19T17:39:18.611Z,22.10
2023-01-19T17:41:50.222Z,23.70
2023-01-19T17:44:19.660Z,22.10
2023-01-19T17:46:48.970Z,24.92
2023-01-19T17:49:18.275Z,27.48
2023-01-19T17:51:51.859Z,25.65
2023-01-19T17:54:21.223Z,21.88
2023-01-19T17:56:53.439Z,31.77
2023-01-19T17:59:22.789Z,18.08
2023-01-19T18:01:52.042Z,21.88
2023-01-19T18:04:21.336Z,21.90
2023-01-19T18:06:50.701Z,22.83
2023-01-19T18:09:20.017Z,25.23
2023-01-19T18:11:49.324Z,27.88
2023-01-19T18:14:18.612Z,28.98
2023-01-19T18:16:48.125Z,27.48
2023-01-19T18:19:17.840Z,20.60
2023-01-19T18:21:47.143Z,26.50
2023-01-19T18:24:16.658Z,22.05
2023-01-19T18:26:46.114Z,23.95
2023-01-19T18:29:16.908Z,31.30
2023-01-19T18:31:46.458Z,24.67
2023-01-19T18:34:15.938Z,23.02
2023-01-19T18:36:45.370Z,23.08
2023-01-19T18:39:14.771Z,24.23
2023-01-19T18:41:44.429Z,27.45
2023-01-19T18:44:14.352Z,29.48
2023-01-19T18:46:43.833Z,29.35
2023-01-19T18:49:13.161Z,28.00
2023-01-19T18:51:42.590Z,26.35
2023-01-19T18:54:12.609Z,26.85
2023-01-19T18:56:41.895Z,29.42
2023-01-19T18:59:11.209Z,29.35
2023-01-19T19:01:40.710Z,23.67
2023-01-19T19:04:10.129Z,24.90
2023-01-19T19:06:39.518Z,29.73
2023-01-19T19:09:08.783Z,25.40
2023-01-19T19:11:38.138Z,27.58
2023-01-19T19:14:07.359Z,25.80
2023-01-19T19:16:39.274Z,33.92
2023-01-19T19:19:11.944Z,30.25
2023-01-19T19:21:41.500Z,19.63
2023-01-19T19:24:11.437Z,37.67
2023-01-19T19:26:41.933Z,34.92
2023-01-19T19:29:11.975Z,22.17
2023-01-19T19:31:41.424Z,30.40
2023-01-19T19:34:12.477Z,25.20
2023-01-19T19:36:42.166Z,26.42
2023-01-19T19:39:11.524Z,30.90
2023-01-19T19:41:42.409Z,34.83
2023-01-19T19:44:13.467Z,31.63
2023-01-19T19:46:43.807Z,28.63
2023-01-19T19:49:13.147Z,25.20
2023-01-19T19:51:42.501Z,27.17
2023-01-19T19:54:15.004Z,32.22
2023-01-19T19:56:44.440Z,26.23
2023-01-19T19:59:13.721Z,29.65
2023-01-19T20:01:43.903Z,29.35
2023-01-19T20:04:14.542Z,28.88
2023-01-19T20:06:46.367Z,26.20
2023-01-19T20:09:16.195Z,29.63
2023-01-19T20:11:46.741Z,30.35
2023-01-19T20:14:16.821Z,31.05
2023-01-19T20:16:46.386Z,27.58
2023-01-19T20:19:15.717Z,28.77
2023-01-19T20:21:45.085Z,28.88
2023-01-19T20:24:18.602Z,30.02
2023-01-19T20:26:49.690Z,35.00
2023-01-19T20:29:19.467Z,32.95
2023-01-19T20:31:50.411Z,31.13
2023-01-19T20:34:21.286Z,37.70
2023-01-19T20:36:53.287Z,32.88
2023-01-19T20:39:23.482Z,30.80
2023-01-19T20:41:53.008Z,27.52
2023-01-19T20:44:23.470Z,28.77
2023-01-19T20:46:53.098Z,29.25
2023-01-19T20:49:24.408Z,35.38
2023-01-19T20:51:54.196Z,35.83
2023-01-19T20:54:26.278Z,28.63
2023-01-19T20:56:55.930Z,45.30
2023-01-19T20:59:25.759Z,33.67
2023-01-19T21:01:55.180Z,33.08
2023-01-19T21:04:24.913Z,35.70
2023-01-19T21:06:54.319Z,30.98
2023-01-19T21:09:23.746Z,31.48
2023-01-19T21:11:55.928Z,26.67
2023-01-19T21:14:26.568Z,28.85
2023-01-19T21:16:58.365Z,35.50
2023-01-19T21:19:27.896Z,27.88
2023-01-19T21:21:57.914Z,33.30
2023-01-19T21:24:27.202Z,36.13
2023-01-19T21:26:56.667Z,35.65
2023-01-19T21:29:26.081Z,32.15
2023-01-19T21:31:55.546Z,27.85
2023-01-19T21:34:24.823Z,28.08
2023-01-19T21:36:54.045Z,33.33
2023-01-19T21:39:23.382Z,28.85
2023-01-19T21:41:52.843Z,30.83
2023-01-19T21:44:22.286Z,34.35
2023-01-19T21:46:51.643Z,26.85
2023-01-19T21:49:21.783Z,31.02
2023-01-19T21:51:51.865Z,31.23
2023-01-19T21:54:21.499Z,27.60
2023-01-19T21:56:50.850Z,34.33
2023-01-19T21:59:20.508Z,27.10
2023-01-19T22:01:50.169Z,28.80
2023-01-19T22:04:19.679Z,33.97
2023-01-19T22:06:49.052Z,29.77
2023-01-19T22:09:18.432Z,31.63
2023-01-19T22:11:47.699Z,32.95
2023-01-19T22:14:16.953Z,30.58
2023-01-19T22:16:46.337Z,29.27
2023-01-19T22:19:15.682Z,29.92
2023-01-19T22:21:44.989Z,38.35
2023-01-19T22:24:14.295Z,26.02
2023-01-19T22:26:43.650Z,29.35
2023-01-19T22:29:13.510Z,34.97
2023-01-19T22:31:43.258Z,33.40
2023-01-19T22:34:13.716Z,32.17
2023-01-19T22:36:42.976Z,33.85
2023-01-19T22:39:13.830Z,29.67
2023-01-19T22:41:47.668Z,30.67
2023-01-19T22:44:22.657Z,32.65
2023-01-19T22:46:55.390Z,27.30
2023-01-19T22:49:24.917Z,36.75
2023-01-19T22:51:54.483Z,28.38
2023-01-19T22:54:24.073Z,33.80
2023-01-19T22:56:53.458Z,33.10
2023-01-19T22:59:22.826Z,32.10
2023-01-19T23:01:52.272Z,33.42
2023-01-19T23:04:21.640Z,31.85
2023-01-19T23:06:53.380Z,30.90
2023-01-19T23:09:23.866Z,37.78
2023-01-19T23:11:53.147Z,37.55
2023-01-19T23:14:23.877Z,35.13
2023-01-19T23:16:53.141Z,37.58
2023-01-19T23:19:22.737Z,32.78
2023-01-19T23:21:55.369Z,40.00
2023-01-19T23:24:24.650Z,36.92
2023-01-19T23:26:54.042Z,37.05
2023-01-19T23:29:23.421Z,33.53
2023-01-19T23:31:53.613Z,42.28
2023-01-19T23:34:22.977Z,39.63
2023-01-19T23:36:52.349Z,37.47
2023-01-19T23:39:22.941Z,37.17
2023-01-19T23:41:52.730Z,37.05
2023-01-19T23:44:22.126Z,39.10
2023-01-19T23:46:51.417Z,35.08
2023-01-19T23:49:20.778Z,36.72
2023-01-19T23:51:50.063Z,32.28
2023-01-19T23:54:19.315Z,40.35
2023-01-19T23:56:48.576Z,32.30
2023-01-19T23:59:18.589Z,40.67
